Time;durP1;ratioP1;P1;durP2;ratioP2;P2;SDS_P1;SDS_P2;PMS_P1;PMS_P2;Temp;Humidity;BMP_temperature;BMP_pressure;BME280_temperature;BME280_humidity;BME280_pressure;Samples;Min_cycle;Max_cycle;Signal;HPM_P1;HPM_P2
2022/09/03 00:02:26;;;;;;;1.20;1.10;;;;;;;;;;5072510;28;20024;-79
2022/09/03 00:04:59;;;;;;;1.30;1.20;;;;;;;;;;5072610;28;20021;-79
2022/09/03 00:07:34;;;;;;;1.65;1.05;;;;;;;;;;5072480;28;20488;-79
2022/09/03 00:10:04;;;;;;;1.42;1.33;;;;;;;;;;5089430;28;20392;-79
2022/09/03 00:12:33;;;;;;;2.95;1.27;;;;;;;;;;5071511;28;20387;-79
2022/09/03 00:15:03;;;;;;;1.42;1.20;;;;;;;;;;5072543;28;20456;-78
2022/09/03 00:17:45;;;;;;;1.20;1.10;;;;;;;;;;5072083;28;20107;-78
2022/09/03 00:20:16;;;;;;;1.42;1.20;;;;;;;;;;5072268;28;20075;-79
2022/09/03 00:22:48;;;;;;;2.00;1.20;;;;;;;;;;5072125;28;20032;-78
2022/09/03 00:25:18;;;;;;;2.72;1.20;;;;;;;;;;5089151;28;20040;-78
2022/09/03 00:27:49;;;;;;;1.30;1.15;;;;;;;;;;5072090;28;20539;-79
2022/09/03 00:30:16;;;;;;;1.58;1.17;;;;;;;;;;5072516;28;20024;-78
2022/09/03 00:32:46;;;;;;;1.50;1.20;;;;;;;;;;5072001;28;20136;-78
2022/09/03 00:35:41;;;;;;;1.73;1.20;;;;;;;;;;5071858;28;20127;-78
2022/09/03 00:38:07;;;;;;;2.45;1.10;;;;;;;;;;5066768;28;20462;-78
2022/09/03 00:40:49;;;;;;;1.67;1.05;;;;;;;;;;5072244;28;20037;-78
2022/09/03 00:43:33;;;;;;;1.27;1.17;;;;;;;;;;5071875;28;20150;-78
2022/09/03 00:46:06;;;;;;;;;;;;;;;;;;5072075;28;20102;-79
2022/09/03 00:48:57;;;;;;;1.20;1.10;;;;;;;;;;5055179;28;20021;-79
2022/09/03 00:51:37;;;;;;;2.55;1.20;;;;;;;;;;5088691;28;20031;-79
2022/09/03 00:54:31;;;;;;;1.10;1.10;;;;;;;;;;5071741;28;20020;-79
2022/09/03 00:57:24;;;;;;;1.20;1.10;;;;;;;;;;5073069;28;20025;-79
2022/09/03 01:00:19;;;;;;;1.65;1.40;;;;;;;;;;5071588;28;20040;-79
2022/09/03 01:02:59;;;;;;;1.50;1.17;;;;;;;;;;5064218;28;20036;-79
2022/09/03 01:05:34;;;;;;;1.30;1.20;;;;;;;;;;5072862;28;20112;-79
2022/09/03 01:08:10;;;;;;;0.90;0.90;;;;;;;;;;5072980;28;20074;-79
2022/09/03 01:10:52;;;;;;;1.23;1.13;;;;;;;;;;5088113;28;20043;-79
2022/09/03 01:13:23;;;;;;;1.63;1.30;;;;;;;;;;5072731;28;20103;-79
2022/09/03 01:16:22;;;;;;;1.73;1.33;;;;;;;;;;5071712;28;20051;-79
2022/09/03 01:19:00;;;;;;;1.95;1.33;;;;;;;;;;5071119;28;20045;-79
2022/09/03 01:21:45;;;;;;;2.35;1.30;;;;;;;;;;5071288;28;20028;-78
2022/09/03 01:24:13;;;;;;;2.10;1.23;;;;;;;;;;5071083;28;20073;-79
2022/09/03 01:26:45;;;;;;;3.40;1.30;;;;;;;;;;5071297;28;20040;-79
2022/09/03 01:29:13;;;;;;;1.30;1.20;;;;;;;;;;5072798;28;20100;-80
2022/09/03 01:31:49;;;;;;;5.38;2.42;;;;;;;;;;5071224;28;20029;-79
2022/09/03 01:34:15;;;;;;;1.23;1.10;;;;;;;;;;5088606;28;20465;-79
2022/09/03 01:36:53;;;;;;;3.88;1.83;;;;;;;;;;5072489;28;20031;-79
2022/09/03 01:39:32;;;;;;;1.52;1.00;;;;;;;;;;5072938;28;20025;-80
2022/09/03 01:42:14;;;;;;;1.73;1.20;;;;;;;;;;5072666;28;20029;-79
2022/09/03 01:44:56;;;;;;;2.28;1.10;;;;;;;;;;5071471;28;20100;-79
2022/09/03 01:47:50;;;;;;;1.80;1.10;;;;;;;;;;5070980;28;20071;-80
2022/09/03 01:50:26;;;;;;;5.10;1.37;;;;;;;;;;5072711;28;20016;-79
2022/09/03 01:52:58;;;;;;;1.20;1.10;;;;;;;;;;5071532;28;20078;-79
2022/09/03 01:55:43;;;;;;;1.30;1.20;;;;;;;;;;5070985;28;20507;-79
2022/09/03 01:58:15;;;;;;;1.83;1.27;;;;;;;;;;5070887;28;20063;-79
2022/09/03 02:00:42;;;;;;;1.30;1.20;;;;;;;;;;5070970;28;20021;-79
2022/09/03 02:03:09;;;;;;;1.40;1.30;;;;;;;;;;5088179;28;20052;-79
2022/09/03 02:05:34;;;;;;;2.70;1.10;;;;;;;;;;5088382;28;20032;-79
2022/09/03 02:08:08;;;;;;;2.97;1.20;;;;;;;;;;5070794;28;20399;-79
2022/09/03 02:10:38;;;;;;;1.33;1.20;;;;;;;;;;5070834;28;20052;-79
2022/09/03 02:13:06;;;;;;;1.38;1.20;;;;;;;;;;5072350;28;20055;-79
2022/09/03 02:15:34;;;;;;;2.78;1.45;;;;;;;;;;5070778;28;20139;-79
2022/09/03 02:18:02;;;;;;;3.72;1.40;;;;;;;;;;5070551;28;20412;-79
2022/09/03 02:20:28;;;;;;;1.20;1.08;;;;;;;;;;5070825;28;20028;-79
2022/09/03 02:22:55;;;;;;;1.52;1.20;;;;;;;;;;5071068;28;20496;-79
2022/09/03 02:25:23;;;;;;;1.50;1.40;;;;;;;;;;5070701;28;20032;-79
2022/09/03 02:27:49;;;;;;;1.23;1.13;;;;;;;;;;5070907;28;20364;-79
2022/09/03 02:30:16;;;;;;;2.22;1.17;;;;;;;;;;5087699;28;20035;-79
2022/09/03 02:32:42;;;;;;;3.50;1.30;;;;;;;;;;5087940;28;20421;-79
2022/09/03 02:35:08;;;;;;;1.50;1.20;;;;;;;;;;5071710;28;20039;-79
2022/09/03 02:37:33;;;;;;;3.08;1.38;;;;;;;;;;5074493;28;20029;-79
2022/09/03 02:39:59;;;;;;;1.90;1.20;;;;;;;;;;5074280;28;20070;-79
2022/09/03 02:42:24;;;;;;;2.90;1.15;;;;;;;;;;5074452;28;20438;-79
2022/09/03 02:44:55;;;;;;;2.85;1.20;;;;;;;;;;5074213;28;20040;-79
2022/09/03 02:47:20;;;;;;;2.13;1.20;;;;;;;;;;5091289;28;20503;-79
2022/09/03 02:49:47;;;;;;;1.30;1.20;;;;;;;;;;5073920;28;20123;-79
2022/09/03 02:52:13;;;;;;;1.88;1.20;;;;;;;;;;5074185;28;20029;-79
2022/09/03 02:54:38;;;;;;;1.10;1.00;;;;;;;;;;5073910;28;20035;-79
2022/09/03 02:57:09;;;;;;;1.42;1.00;;;;;;;;;;5073840;28;20142;-79
2022/09/03 02:59:35;;;;;;;2.10;1.27;;;;;;;;;;5074168;28;20032;-79
2022/09/03 03:02:02;;;;;;;1.23;1.13;;;;;;;;;;5073850;28;20058;-79
2022/09/03 03:04:29;;;;;;;1.20;1.10;;;;;;;;;;5075433;28;20116;-79
2022/09/03 03:06:54;;;;;;;1.27;1.17;;;;;;;;;;5057061;28;20028;-79
2022/09/03 03:09:19;;;;;;;2.88;1.10;;;;;;;;;;5073760;28;20579;-79
2022/09/03 03:11:45;;;;;;;1.20;1.10;;;;;;;;;;5073765;28;20500;-79
2022/09/03 03:14:11;;;;;;;2.00;1.20;;;;;;;;;;5073511;28;20028;-79
2022/09/03 03:16:36;;;;;;;1.08;1.08;;;;;;;;;;5056971;28;20032;-79
2022/09/03 03:19:02;;;;;;;1.25;1.00;;;;;;;;;;5090445;28;20052;-79
2022/09/03 03:21:27;;;;;;;1.30;1.20;;;;;;;;;;5073514;28;20062;-79
2022/09/03 03:23:53;;;;;;;1.15;1.08;;;;;;;;;;5073981;28;20531;-79
2022/09/03 03:26:19;;;;;;;3.00;1.20;;;;;;;;;;5073368;28;20056;-79
2022/09/03 03:28:47;;;;;;;2.13;1.30;;;;;;;;;;5073455;28;20026;-78
2022/09/03 03:31:19;;;;;;;1.50;1.13;;;;;;;;;;5074102;28;20028;-79
2022/09/03 03:33:56;;;;;;;3.00;1.13;;;;;;;;;;5090310;28;20016;-79
2022/09/03 03:36:23;;;;;;;1.92;1.20;;;;;;;;;;5073342;28;20383;-79
2022/09/03 03:38:53;;;;;;;1.20;0.90;;;;;;;;;;5090417;28;20492;-79
2022/09/03 03:41:21;;;;;;;1.08;1.05;;;;;;;;;;5073210;28;20069;-79
2022/09/03 03:43:46;;;;;;;1.45;1.20;;;;;;;;;;5073272;28;20027;-79
2022/09/03 03:46:12;;;;;;;2.10;1.05;;;;;;;;;;5073041;28;20107;-79
2022/09/03 03:48:38;;;;;;;2.10;1.10;;;;;;;;;;5089732;28;20036;-79
2022/09/03 03:51:07;;;;;;;1.80;1.27;;;;;;;;;;5072857;28;20028;-79
2022/09/03 03:53:33;;;;;;;2.40;1.10;;;;;;;;;;5073319;28;20031;-79
2022/09/03 03:56:01;;;;;;;1.80;1.10;;;;;;;;;;5090029;28;20465;-79
2022/09/03 03:58:30;;;;;;;1.40;1.15;;;;;;;;;;5072842;28;20094;-79
2022/09/03 04:01:06;;;;;;;3.08;1.13;;;;;;;;;;5056244;28;20031;-79
2022/09/03 04:03:33;;;;;;;1.50;1.17;;;;;;;;;;5072855;28;20039;-79
2022/09/03 04:05:59;;;;;;;1.80;1.20;;;;;;;;;;5089680;28;20028;-79
2022/09/03 04:08:25;;;;;;;1.02;1.02;;;;;;;;;;5072561;28;20028;-79
2022/09/03 04:10:51;;;;;;;1.50;1.40;;;;;;;;;;5072582;28;20059;-78
2022/09/03 04:13:16;;;;;;;2.33;1.30;;;;;;;;;;5089779;28;20032;-79
2022/09/03 04:15:42;;;;;;;1.20;1.10;;;;;;;;;;5072661;28;20033;-79
2022/09/03 04:18:08;;;;;;;3.97;1.13;;;;;;;;;;5072326;28;20060;-78
2022/09/03 04:20:36;;;;;;;2.13;1.20;;;;;;;;;;5073673;28;20421;-81
2022/09/03 04:23:03;;;;;;;1.95;1.08;;;;;;;;;;5072510;28;20032;-80
2022/09/03 04:25:28;;;;;;;1.15;1.08;;;;;;;;;;5089701;28;20387;-79
2022/09/03 04:27:54;;;;;;;2.33;1.13;;;;;;;;;;5073861;28;20048;-79
2022/09/03 04:30:20;;;;;;;1.42;1.10;;;;;;;;;;5074031;28;20098;-79
2022/09/03 04:32:52;;;;;;;1.45;1.00;;;;;;;;;;5090016;28;20063;-79
2022/09/03 04:35:18;;;;;;;2.42;1.10;;;;;;;;;;5072771;28;20031;-78
2022/09/03 04:37:43;;;;;;;1.00;1.00;;;;;;;;;;5072490;28;20472;-79
2022/09/03 04:40:09;;;;;;;6.00;1.10;;;;;;;;;;5073992;28;20435;-79
2022/09/03 04:42:34;;;;;;;1.80;1.10;;;;;;;;;;5072593;28;20086;-79
2022/09/03 04:45:00;;;;;;;1.33;1.00;;;;;;;;;;5072530;28;20035;-79
2022/09/03 04:47:26;;;;;;;1.08;1.00;;;;;;;;;;5074039;28;20060;-79
2022/09/03 04:49:53;;;;;;;3.53;1.15;;;;;;;;;;5072389;28;20028;-79
2022/09/03 04:52:18;;;;;;;2.80;1.10;;;;;;;;;;5089546;28;20055;-79
2022/09/03 04:54:43;;;;;;;1.10;1.00;;;;;;;;;;5072325;28;20074;-78
2022/09/03 04:57:09;;;;;;;2.10;1.10;;;;;;;;;;5072196;28;20032;-79
2022/09/03 04:59:34;;;;;;;1.05;1.00;;;;;;;;;;5074540;28;20552;-79
2022/09/03 05:02:00;;;;;;;1.75;1.23;;;;;;;;;;5091205;28;20120;-79
2022/09/03 05:04:25;;;;;;;1.27;1.00;;;;;;;;;;5075561;28;20056;-79
2022/09/03 05:06:50;;;;;;;1.30;1.20;;;;;;;;;;5093070;28;20052;-79
2022/09/03 05:09:16;;;;;;;1.10;1.00;;;;;;;;;;5058465;28;20020;-79
2022/09/03 05:11:41;;;;;;;1.23;1.08;;;;;;;;;;5075265;28;20033;-79
2022/09/03 05:14:10;;;;;;;0.90;0.90;;;;;;;;;;5074184;28;20029;-79
2022/09/03 05:16:36;;;;;;;1.08;1.02;;;;;;;;;;5074010;28;20036;-79
2022/09/03 05:19:04;;;;;;;1.52;1.08;;;;;;;;;;5057206;28;20048;-79
2022/09/03 05:21:31;;;;;;;2.97;1.30;;;;;;;;;;5073766;28;20125;-79
2022/09/03 05:23:56;;;;;;;2.78;1.00;;;;;;;;;;5055906;28;20078;-79
2022/09/03 05:26:24;;;;;;;1.10;1.00;;;;;;;;;;5072966;28;20434;-79
2022/09/03 05:28:58;;;;;;;2.28;1.20;;;;;;;;;;5089629;28;20016;-79
2022/09/03 05:31:25;;;;;;;1.00;0.93;;;;;;;;;;5055583;28;20373;-79
2022/09/03 05:33:53;;;;;;;2.00;1.63;;;;;;;;;;5075261;28;20027;-79
2022/09/03 05:36:24;;;;;;;0.98;0.98;;;;;;;;;;5057702;28;20033;-79
2022/09/03 05:38:50;;;;;;;1.30;1.20;;;;;;;;;;5074759;28;20029;-79
2022/09/03 05:41:17;;;;;;;1.25;1.00;;;;;;;;;;5058443;28;20135;-79
2022/09/03 05:43:42;;;;;;;0.90;0.90;;;;;;;;;;5075068;28;20028;-79
2022/09/03 05:46:14;;;;;;;4.20;1.20;;;;;;;;;;5073641;28;20028;-79
2022/09/03 05:48:40;;;;;;;2.45;1.20;;;;;;;;;;5075594;28;20032;-79
2022/09/03 05:51:16;;;;;;;1.48;1.38;;;;;;;;;;5089987;28;20027;-78
2022/09/03 05:53:43;;;;;;;1.98;1.10;;;;;;;;;;5089835;28;20449;-78
2022/09/03 05:56:16;;;;;;;8.27;1.20;;;;;;;;;;5073202;28;20024;-77
2022/09/03 05:58:44;;;;;;;2.53;1.48;;;;;;;;;;5090324;28;20027;-80
2022/09/03 06:01:33;;;;;;;7.47;2.55;;;;;;;;;;5056379;28;20025;-81
2022/09/03 06:04:03;;;;;;;8.50;2.80;;;;;;;;;;5088450;28;20103;-79
2022/09/03 06:06:30;;;;;;;9.63;2.70;;;;;;;;;;5089461;28;20025;-80
2022/09/03 06:08:58;;;;;;;5.45;2.90;;;;;;;;;;5071481;28;20060;-79
2022/09/03 06:11:28;;;;;;;17.50;3.97;;;;;;;;;;5075580;28;20032;-80
2022/09/03 06:14:01;;;;;;;9.52;4.63;;;;;;;;;;5093229;28;20025;-80
2022/09/03 06:16:28;;;;;;;9.45;4.20;;;;;;;;;;5076112;28;20059;-78
2022/09/03 06:18:54;;;;;;;6.00;3.53;;;;;;;;;;5060389;28;20131;-81
2022/09/03 06:21:19;;;;;;;9.23;3.63;;;;;;;;;;5076462;28;20548;-81
2022/09/03 06:23:50;;;;;;;6.72;3.20;;;;;;;;;;5076078;28;20017;-80
2022/09/03 06:26:16;;;;;;;5.22;3.08;;;;;;;;;;5075700;28;20111;-81
2022/09/03 06:28:43;;;;;;;5.60;2.67;;;;;;;;;;5076504;28;20424;-81
2022/09/03 06:31:13;;;;;;;8.65;2.40;;;;;;;;;;5075579;28;20051;-80
2022/09/03 06:33:40;;;;;;;7.80;2.15;;;;;;;;;;5075047;28;20043;-79
2022/09/03 06:36:08;;;;;;;2.05;1.83;;;;;;;;;;5075456;28;20029;-80
2022/09/03 06:38:34;;;;;;;5.85;2.00;;;;;;;;;;5058812;28;20031;-81
2022/09/03 06:41:02;;;;;;;3.40;1.90;;;;;;;;;;5077157;28;20034;-81
2022/09/03 06:43:32;;;;;;;6.57;1.70;;;;;;;;;;5059553;28;20028;-80
2022/09/03 06:46:00;;;;;;;2.72;1.60;;;;;;;;;;5093225;28;20029;-78
2022/09/03 06:48:26;;;;;;;4.85;1.75;;;;;;;;;;5076132;28;20067;-80
2022/09/03 06:51:00;;;;;;;2.25;1.35;;;;;;;;;;5074443;28;20033;-77
2022/09/03 06:53:26;;;;;;;;;;;;;;;;;;5075907;28;20028;-79
2022/09/03 06:55:53;;;;;;;4.15;1.50;;;;;;;;;;5076158;28;19940;-78
2022/09/03 06:58:18;;;;;;;6.25;1.60;;;;;;;;;;5092223;28;20166;-78
2022/09/03 07:00:44;;;;;;;3.55;1.73;;;;;;;;;;5076675;28;20111;-78
2022/09/03 07:03:09;;;;;;;3.65;2.00;;;;;;;;;;5075567;28;20116;-78
2022/09/03 07:05:34;;;;;;;4.40;1.60;;;;;;;;;;5059001;28;20039;-78
2022/09/03 07:08:00;;;;;;;10.98;1.90;;;;;;;;;;5075456;28;20029;-78
2022/09/03 07:10:26;;;;;;;2.63;1.48;;;;;;;;;;5075874;28;20064;-78
2022/09/03 07:12:54;;;;;;;3.67;1.70;;;;;;;;;;5092660;28;20487;-77
2022/09/03 07:15:20;;;;;;;4.35;1.73;;;;;;;;;;5091427;28;20052;-76
2022/09/03 07:17:45;;;;;;;3.83;1.33;;;;;;;;;;5091725;28;20484;-79
2022/09/03 07:20:11;;;;;;;2.20;1.42;;;;;;;;;;5058108;28;20032;-78
2022/09/03 07:22:36;;;;;;;4.97;1.55;;;;;;;;;;5075001;28;20086;-78
2022/09/03 07:25:02;;;;;;;3.10;1.40;;;;;;;;;;5076067;28;20038;-78
2022/09/03 07:27:27;;;;;;;4.40;1.70;;;;;;;;;;5075610;28;20033;-77
2022/09/03 07:29:52;;;;;;;2.58;1.60;;;;;;;;;;5075520;28;20056;-77
2022/09/03 07:32:18;;;;;;;7.05;1.90;;;;;;;;;;5075180;28;20486;-77
2022/09/03 07:34:43;;;;;;;4.88;1.30;;;;;;;;;;5075410;28;20370;-78
2022/09/03 07:37:08;;;;;;;6.60;1.77;;;;;;;;;;5075163;28;20466;-78
2022/09/03 07:39:34;;;;;;;4.15;1.40;;;;;;;;;;5075250;28;20044;-78
2022/09/03 07:41:59;;;;;;;2.13;1.20;;;;;;;;;;5075373;28;20081;-78
2022/09/03 07:44:27;;;;;;;2.85;1.23;;;;;;;;;;5074632;28;20024;-77
2022/09/03 07:46:52;;;;;;;2.25;1.30;;;;;;;;;;5091369;28;20486;-77
2022/09/03 07:49:19;;;;;;;5.07;1.40;;;;;;;;;;5091743;28;20108;-77
2022/09/03 07:51:49;;;;;;;1.75;1.10;;;;;;;;;;5075288;28;20028;-77
2022/09/03 07:54:19;;;;;;;1.63;1.25;;;;;;;;;;5074985;28;20039;-78
2022/09/03 07:56:44;;;;;;;3.80;1.20;;;;;;;;;;5091876;28;20040;-78
2022/09/03 07:59:10;;;;;;;2.05;1.25;;;;;;;;;;5058894;28;20377;-78
2022/09/03 08:01:36;;;;;;;2.03;1.20;;;;;;;;;;5079810;28;20126;-77
2022/09/03 08:04:03;;;;;;;1.20;1.10;;;;;;;;;;5078337;28;20043;-77
2022/09/03 08:06:29;;;;;;;1.63;1.10;;;;;;;;;;5075411;28;20028;-77
2022/09/03 08:08:57;;;;;;;2.35;1.00;;;;;;;;;;5091358;28;20050;-77
2022/09/03 08:11:23;;;;;;;3.65;1.15;;;;;;;;;;5075523;28;20085;-77
2022/09/03 08:14:01;;;;;;;2.35;1.13;;;;;;;;;;5093022;28;20048;-77
2022/09/03 08:16:32;;;;;;;1.20;1.10;;;;;;;;;;5074652;28;20029;-77
2022/09/03 08:18:58;;;;;;;2.15;1.23;;;;;;;;;;5073870;28;20143;-77
2022/09/03 08:21:24;;;;;;;2.08;1.30;;;;;;;;;;5073907;28;20117;-78
2022/09/03 08:23:51;;;;;;;1.92;1.23;;;;;;;;;;5075537;28;20032;-77
2022/09/03 08:26:18;;;;;;;3.35;1.30;;;;;;;;;;5074065;28;20020;-77
2022/09/03 08:28:44;;;;;;;5.40;1.52;;;;;;;;;;5075105;28;20024;-77
2022/09/03 08:31:18;;;;;;;2.55;1.45;;;;;;;;;;5073430;28;20033;-77
2022/09/03 08:33:49;;;;;;;1.30;1.10;;;;;;;;;;5055636;28;20476;-77
2022/09/03 08:36:15;;;;;;;3.33;1.35;;;;;;;;;;5090533;28;20090;-77
2022/09/03 08:38:44;;;;;;;1.75;1.02;;;;;;;;;;5089922;28;20029;-77
2022/09/03 08:41:15;;;;;;;1.88;1.23;;;;;;;;;;5090104;28;20032;-77
2022/09/03 08:44:04;;;;;;;3.30;1.30;;;;;;;;;;5072648;28;20024;-77
2022/09/03 08:46:50;;;;;;;2.28;1.08;;;;;;;;;;5073303;28;20032;-78
2022/09/03 08:49:37;;;;;;;1.85;1.10;;;;;;;;;;5072697;28;20028;-77
2022/09/03 08:52:11;;;;;;;3.33;1.45;;;;;;;;;;5006521;28;20054;-77
2022/09/03 08:54:37;;;;;;;1.42;1.23;;;;;;;;;;5039749;28;20028;-77
2022/09/03 08:57:02;;;;;;;1.48;1.20;;;;;;;;;;5040254;28;20059;-77
2022/09/03 08:59:31;;;;;;;1.20;1.10;;;;;;;;;;5074786;28;20035;-76
2022/09/03 09:02:15;;;;;;;1.30;1.13;;;;;;;;;;5040423;28;20037;-77
2022/09/03 09:04:59;;;;;;;1.35;0.93;;;;;;;;;;5055648;28;20364;-77
2022/09/03 09:07:38;;;;;;;1.75;1.23;;;;;;;;;;5073826;28;20472;-77
2022/09/03 09:10:24;;;;;;;2.65;1.20;;;;;;;;;;5038887;28;20563;-77
2022/09/03 09:13:02;;;;;;;2.60;1.30;;;;;;;;;;5055804;28;20100;-77
2022/09/03 09:15:47;;;;;;;1.08;0.90;;;;;;;;;;5055382;28;20087;-77
2022/09/03 09:18:41;;;;;;;3.15;1.25;;;;;;;;;;5055308;28;20083;-77
2022/09/03 09:21:14;;;;;;;2.83;1.10;;;;;;;;;;5073446;28;20027;-78
2022/09/03 09:23:50;;;;;;;2.17;1.10;;;;;;;;;;5038612;28;20028;-77
2022/09/03 09:26:17;;;;;;;1.70;1.00;;;;;;;;;;5055645;28;20021;-78
2022/09/03 09:28:52;;;;;;;2.78;1.40;;;;;;;;;;5055267;28;20472;-76
2022/09/03 09:31:19;;;;;;;1.33;1.17;;;;;;;;;;5038646;28;20020;-77
2022/09/03 09:33:45;;;;;;;2.28;1.02;;;;;;;;;;5055313;28;20488;-77
2022/09/03 09:36:15;;;;;;;1.30;1.20;;;;;;;;;;5055637;28;20048;-76
2022/09/03 09:38:40;;;;;;;2.20;1.27;;;;;;;;;;5055428;28;20056;-77
2022/09/03 09:41:15;;;;;;;1.40;1.20;;;;;;;;;;5055321;28;20044;-77
2022/09/03 09:43:42;;;;;;;1.00;1.00;;;;;;;;;;5055586;28;20060;-76
2022/09/03 09:46:20;;;;;;;1.52;1.17;;;;;;;;;;5042660;28;20036;-77
2022/09/03 09:48:53;;;;;;;1.10;1.00;;;;;;;;;;5059493;28;20051;-77
2022/09/03 09:51:24;;;;;;;0.90;0.90;;;;;;;;;;5059301;28;20534;-78
2022/09/03 09:54:26;;;;;;;2.00;1.20;;;;;;;;;;5042426;28;20082;-77
2022/09/03 09:57:01;;;;;;;2.15;1.20;;;;;;;;;;4992231;28;20032;-77
2022/09/03 09:59:27;;;;;;;1.63;1.23;;;;;;;;;;5042467;28;20499;-77
2022/09/03 10:02:03;;;;;;;1.73;1.10;;;;;;;;;;5059308;28;20037;-77
2022/09/03 10:04:30;;;;;;;2.25;1.40;;;;;;;;;;5042302;28;20472;-77
2022/09/03 10:07:22;;;;;;;2.88;1.10;;;;;;;;;;5059003;28;20036;-81
2022/09/03 10:10:13;;;;;;;2.65;1.00;;;;;;;;;;5072013;28;20100;-78
2022/09/03 10:12:58;;;;;;;3.03;1.10;;;;;;;;;;5059247;28;20025;-78
2022/09/03 10:15:32;;;;;;;1.23;1.00;;;;;;;;;;5059621;28;20435;-78
2022/09/03 10:18:36;;;;;;;1.80;1.23;;;;;;;;;;5076734;28;20551;-77
2022/09/03 10:21:30;;;;;;;6.22;1.10;;;;;;;;;;5057928;28;20044;-78
2022/09/03 10:24:04;;;;;;;1.50;0.95;;;;;;;;;;5042191;28;20483;-78
2022/09/03 10:26:31;;;;;;;5.32;1.15;;;;;;;;;;5058443;28;20035;-79
2022/09/03 10:28:59;;;;;;;1.23;1.13;;;;;;;;;;5059616;28;20028;-79
2022/09/03 10:31:29;;;;;;;2.90;1.20;;;;;;;;;;5043181;28;20038;-79
2022/09/03 10:34:17;;;;;;;4.03;0.95;;;;;;;;;;5076923;28;20062;-79
2022/09/03 10:37:23;;;;;;;3.50;1.27;;;;;;;;;;5040578;28;20024;-79
2022/09/03 10:39:51;;;;;;;1.85;1.25;;;;;;;;;;5030430;28;20040;-78
2022/09/03 10:42:44;;;;;;;3.35;1.10;;;;;;;;;;5095250;28;20034;-81
2022/09/03 10:45:22;;;;;;;2.05;1.00;;;;;;;;;;5083121;28;20498;-79
2022/09/03 10:48:32;;;;;;;3.40;1.20;;;;;;;;;;5083360;28;20036;-80
2022/09/03 10:51:05;;;;;;;2.28;1.10;;;;;;;;;;5079024;28;20028;-79
2022/09/03 10:53:49;;;;;;;1.67;1.10;;;;;;;;;;5116698;28;20096;-79
2022/09/03 10:56:26;;;;;;;4.57;1.27;;;;;;;;;;5080598;28;20119;-80
2022/09/03 10:59:22;;;;;;;5.63;1.20;;;;;;;;;;5081296;28;20023;-79
2022/09/03 11:01:52;;;;;;;2.63;1.20;;;;;;;;;;5082059;28;20058;-79
2022/09/03 11:04:21;;;;;;;5.43;1.20;;;;;;;;;;5081320;28;20039;-79
2022/09/03 11:07:04;;;;;;;2.67;1.00;;;;;;;;;;5098134;28;20030;-81
2022/09/03 11:09:39;;;;;;;1.38;1.08;;;;;;;;;;5080369;28;20031;-80
2022/09/03 11:12:20;;;;;;;2.83;1.08;;;;;;;;;;5097321;28;20031;-80
2022/09/03 11:15:02;;;;;;;1.50;0.98;;;;;;;;;;5080853;28;20051;-80
2022/09/03 11:17:34;;;;;;;1.45;1.00;;;;;;;;;;5094759;28;20042;-80
2022/09/03 11:20:15;;;;;;;1.45;1.20;;;;;;;;;;5076770;28;20028;-80
2022/09/03 11:22:42;;;;;;;9.75;1.20;;;;;;;;;;5060217;28;20414;-80
2022/09/03 11:25:09;;;;;;;3.40;1.33;;;;;;;;;;5076749;28;20085;-80
2022/09/03 11:27:40;;;;;;;1.42;1.10;;;;;;;;;;5059906;28;20032;-80
2022/09/03 11:30:14;;;;;;;4.47;1.20;;;;;;;;;;5076642;28;20020;-80
2022/09/03 11:32:42;;;;;;;2.08;1.42;;;;;;;;;;5060939;28;20030;-79
2022/09/03 11:35:17;;;;;;;1.73;1.20;;;;;;;;;;5076594;28;20032;-79
2022/09/03 11:38:15;;;;;;;2.50;1.00;;;;;;;;;;5059789;28;20034;-80
2022/09/03 11:41:03;;;;;;;3.08;1.10;;;;;;;;;;5051299;28;20459;-80
2022/09/03 11:43:30;;;;;;;1.58;1.10;;;;;;;;;;5059833;28;20028;-80
2022/09/03 11:46:05;;;;;;;4.45;1.38;;;;;;;;;;5043295;28;20066;-80
2022/09/03 11:48:44;;;;;;;1.25;1.10;;;;;;;;;;5076549;28;20067;-80
2022/09/03 11:51:29;;;;;;;1.27;1.00;;;;;;;;;;5076413;28;20031;-81
2022/09/03 11:54:01;;;;;;;1.02;0.93;;;;;;;;;;5076135;28;20027;-80
2022/09/03 11:56:27;;;;;;;1.35;1.10;;;;;;;;;;5076188;28;20506;-80
2022/09/03 11:59:16;;;;;;;1.48;1.13;;;;;;;;;;5076110;28;20016;-80
2022/09/03 12:02:23;;;;;;;2.50;0.98;;;;;;;;;;5076034;28;20051;-80
2022/09/03 12:05:02;;;;;;;2.22;1.20;;;;;;;;;;5065213;28;20032;-80
2022/09/03 12:07:51;;;;;;;2.30;1.00;;;;;;;;;;5074976;28;20379;-81
2022/09/03 12:10:38;;;;;;;0.98;0.98;;;;;;;;;;5055585;28;20031;-80
2022/09/03 12:13:28;;;;;;;3.00;1.13;;;;;;;;;;5075816;28;20114;-80
2022/09/03 12:16:30;;;;;;;3.40;1.30;;;;;;;;;;5059089;28;20390;-80
2022/09/03 12:19:04;;;;;;;2.58;1.00;;;;;;;;;;5034816;28;20047;-80
2022/09/03 12:21:36;;;;;;;1.27;1.15;;;;;;;;;;5059697;28;20042;-80
2022/09/03 12:24:02;;;;;;;1.35;1.00;;;;;;;;;;5059757;28;20019;-80
2022/09/03 12:26:27;;;;;;;1.10;1.00;;;;;;;;;;5076670;28;20031;-80
2022/09/03 12:28:57;;;;;;;1.10;1.00;;;;;;;;;;5076108;28;20540;-80
2022/09/03 12:31:28;;;;;;;1.90;1.00;;;;;;;;;;5059542;28;20035;-80
2022/09/03 12:33:59;;;;;;;2.63;1.10;;;;;;;;;;5059856;28;20477;-80
2022/09/03 12:36:35;;;;;;;1.30;1.08;;;;;;;;;;5094247;28;20541;-80
2022/09/03 12:39:08;;;;;;;1.10;1.00;;;;;;;;;;5094454;28;20056;-80
2022/09/03 12:41:34;;;;;;;2.45;1.45;;;;;;;;;;5076127;28;20027;-80
2022/09/03 12:44:00;;;;;;;1.10;1.00;;;;;;;;;;5076310;28;20508;-80
2022/09/03 12:46:31;;;;;;;0.95;0.93;;;;;;;;;;5075995;28;20173;-80
2022/09/03 12:49:06;;;;;;;1.42;1.10;;;;;;;;;;5075927;28;20036;-80
2022/09/03 12:51:40;;;;;;;1.50;1.20;;;;;;;;;;5076635;28;20027;-80
2022/09/03 12:54:13;;;;;;;1.65;0.90;;;;;;;;;;5075717;28;20495;-80
2022/09/03 12:56:39;;;;;;;1.30;1.20;;;;;;;;;;5059816;28;20039;-79
2022/09/03 12:59:08;;;;;;;2.03;1.00;;;;;;;;;;5059083;28;20095;-79
2022/09/03 13:01:58;;;;;;;11.60;1.63;;;;;;;;;;5075884;28;20028;-79
2022/09/03 13:04:33;;;;;;;1.00;0.95;;;;;;;;;;5091981;28;20055;-79
2022/09/03 13:07:13;;;;;;;1.15;1.05;;;;;;;;;;5075771;28;20103;-79
2022/09/03 13:09:39;;;;;;;5.57;1.20;;;;;;;;;;5093670;28;20031;-79
2022/09/03 13:12:06;;;;;;;1.88;1.20;;;;;;;;;;5093999;28;20034;-79
2022/09/03 13:14:46;;;;;;;1.52;1.10;;;;;;;;;;5093828;28;20106;-79
2022/09/03 13:17:17;;;;;;;8.05;1.45;;;;;;;;;;5075068;28;20036;-79
2022/09/03 13:19:46;;;;;;;3.10;1.65;;;;;;;;;;5113915;28;20039;-79
2022/09/03 13:22:52;;;;;;;6.68;1.75;;;;;;;;;;5078905;28;20024;-79
2022/09/03 13:25:47;;;;;;;0.98;0.98;;;;;;;;;;5080012;28;20471;-79
2022/09/03 13:28:32;;;;;;;1.23;1.10;;;;;;;;;;5114194;28;20015;-79
2022/09/03 13:31:10;;;;;;;1.83;1.20;;;;;;;;;;5114199;28;20042;-79
2022/09/03 13:33:43;;;;;;;1.35;1.00;;;;;;;;;;5078737;28;20386;-79
2022/09/03 13:36:15;;;;;;;2.35;1.15;;;;;;;;;;5080446;28;20023;-79
2022/09/03 13:39:05;;;;;;;1.10;0.90;;;;;;;;;;5078629;28;20028;-79
2022/09/03 13:41:43;;;;;;;1.00;1.00;;;;;;;;;;5113850;28;20487;-79
2022/09/03 13:44:23;;;;;;;1.20;1.10;;;;;;;;;;5078755;28;20024;-79
2022/09/03 13:47:00;;;;;;;1.23;1.10;;;;;;;;;;5097056;28;20494;-79
2022/09/03 13:52:21;;;;;;;1.35;1.20;;;;;;;;;;5113709;28;20403;-78
2022/09/03 13:54:51;;;;;;;1.45;1.15;;;;;;;;;;5095794;28;20034;-78
2022/09/03 13:57:37;;;;;;;2.78;1.20;;;;;;;;;;5095604;28;20023;-78
2022/09/03 14:00:09;;;;;;;2.35;1.15;;;;;;;;;;5095956;28;20027;-78
2022/09/03 14:02:53;;;;;;;1.65;0.90;;;;;;;;;;5095587;28;20165;-77
2022/09/03 14:05:21;;;;;;;2.15;1.27;;;;;;;;;;5114173;28;20024;-78
2022/09/03 14:07:57;;;;;;;2.88;1.40;;;;;;;;;;5096055;28;20046;-78
2022/09/03 14:10:30;;;;;;;2.35;1.30;;;;;;;;;;5078570;28;20024;-78
2022/09/03 14:13:27;;;;;;;4.95;1.20;;;;;;;;;;5095792;28;20030;-78
2022/09/03 14:16:12;;;;;;;1.20;1.10;;;;;;;;;;5113251;28;20028;-79
2022/09/03 14:18:50;;;;;;;1.20;1.10;;;;;;;;;;5113196;28;20188;-78
2022/09/03 14:21:33;;;;;;;3.00;1.20;;;;;;;;;;5095195;28;20036;-78
2022/09/03 14:24:41;;;;;;;1.17;1.05;;;;;;;;;;5078206;28;20554;-78
2022/09/03 14:27:07;;;;;;;2.53;1.20;;;;;;;;;;5057670;28;20035;-78
2022/09/03 14:29:34;;;;;;;2.67;1.67;;;;;;;;;;5078086;28;20031;-78
2022/09/03 14:32:32;;;;;;;1.63;1.45;;;;;;;;;;5097557;28;20189;-78
2022/09/03 14:35:14;;;;;;;1.27;1.17;;;;;;;;;;5083010;28;20055;-78
2022/09/03 14:37:57;;;;;;;2.45;1.20;;;;;;;;;;5098986;28;20059;-78
2022/09/03 14:40:40;;;;;;;1.75;1.20;;;;;;;;;;5098624;28;20122;-78
2022/09/03 14:43:37;;;;;;;1.65;1.40;;;;;;;;;;5098893;28;20069;-78
2022/09/03 14:46:32;;;;;;;2.05;1.27;;;;;;;;;;5096269;28;20035;-78
2022/09/03 14:49:22;;;;;;;1.45;1.30;;;;;;;;;;5102991;28;20483;-77
2022/09/03 14:52:15;;;;;;;4.50;1.30;;;;;;;;;;5116961;28;20035;-77
2022/09/03 14:55:11;;;;;;;4.00;1.30;;;;;;;;;;5117061;28;20076;-77
2022/09/03 14:57:59;;;;;;;2.60;1.23;;;;;;;;;;5097703;28;20069;-78
2022/09/03 15:00:45;;;;;;;3.22;1.30;;;;;;;;;;5116707;28;20494;-78
2022/09/03 15:03:14;;;;;;;1.98;1.40;;;;;;;;;;5081493;28;20019;-78
2022/09/03 15:06:09;;;;;;;1.85;1.50;;;;;;;;;;5116675;28;20024;-78
2022/09/03 15:08:41;;;;;;;5.82;1.42;;;;;;;;;;5067206;28;20387;-76
2022/09/03 15:11:21;;;;;;;2.45;1.50;;;;;;;;;;5098278;28;20024;-76
2022/09/03 15:14:03;;;;;;;1.27;1.15;;;;;;;;;;5098215;28;20023;-76
2022/09/03 15:16:38;;;;;;;4.28;1.10;;;;;;;;;;5081386;28;20027;-76
2022/09/03 15:19:18;;;;;;;1.50;1.40;;;;;;;;;;5116000;28;20046;-76
2022/09/03 15:21:49;;;;;;;1.58;1.40;;;;;;;;;;5097926;28;20027;-76
2022/09/03 15:24:50;;;;;;;1.55;1.38;;;;;;;;;;5097814;28;20020;-76